createdAt,value
2023-05-04T00:00:15.398Z,100545.47
2023-05-04T00:03:19.991Z,100543.88
2023-05-04T00:06:22.841Z,100546.16
2023-05-04T00:09:26.148Z,100541.16
2023-05-04T00:12:28.911Z,100543.22
2023-05-04T00:15:31.840Z,100545.75
2023-05-04T00:18:34.518Z,100545.59
2023-05-04T00:21:37.300Z,100548.94
2023-05-04T00:24:39.827Z,100551.75
2023-05-04T00:27:42.678Z,100545.66
2023-05-04T00:30:47.925Z,100549.97
2023-05-04T00:33:52.083Z,100548.03
2023-05-04T00:36:55.990Z,100538.50
2023-05-04T00:39:59.018Z,100537.56
2023-05-04T00:43:01.530Z,100543.94
2023-05-04T00:46:04.635Z,100536.59
2023-05-04T00:49:07.831Z,100526.59
2023-05-04T00:52:13.400Z,100526.03
2023-05-04T00:55:17.563Z,100534.47
2023-05-04T00:58:21.725Z,100535.53
2023-05-04T01:01:25.982Z,100541.50
2023-05-04T01:04:30.004Z,100543.22
2023-05-04T01:07:56.767Z,100539.09
2023-05-04T01:11:03.104Z,100533.75
2023-05-04T01:14:07.870Z,100541.28
2023-05-04T01:17:11.965Z,100534.44
2023-05-04T01:20:16.296Z,100538.50
2023-05-04T01:23:25.111Z,100535.75
2023-05-04T01:26:32.337Z,100532.75
2023-05-04T01:29:45.421Z,100537.94
2023-05-04T01:32:49.630Z,100543.22
2023-05-04T01:35:52.553Z,100541.41
2023-05-04T01:38:57.665Z,100534.31
2023-05-04T01:42:02.169Z,100543.94
2023-05-04T01:45:05.155Z,100534.78
2023-05-04T01:48:08.184Z,100534.16
2023-05-04T01:51:11.913Z,100532.72
2023-05-04T01:54:15.035Z,100529.81
2023-05-04T01:57:17.600Z,100528.75
2023-05-04T02:00:21.069Z,100528.03
2023-05-04T02:03:23.966Z,100529.81
2023-05-04T02:06:26.758Z,100519.03
2023-05-04T02:09:29.619Z,100511.69
2023-05-04T02:12:32.262Z,100517.56
2023-05-04T02:15:35.249Z,100514.87
2023-05-04T02:18:37.737Z,100516.09
2023-05-04T02:21:42.216Z,100518.78
2023-05-04T02:24:44.790Z,100524.97
2023-05-04T02:27:47.672Z,100513.75
2023-05-04T02:30:51.096Z,100521.94
2023-05-04T02:33:54.031Z,100520.53
2023-05-04T02:36:56.534Z,100522.78
2023-05-04T02:39:59.403Z,100523.03
2023-05-04T02:43:02.228Z,100517.50
2023-05-04T02:46:07.212Z,100518.22
2023-05-04T02:49:12.088Z,100514.50
2023-05-04T02:52:15.520Z,100520.78
2023-05-04T02:55:18.072Z,100519.97
2023-05-04T02:58:21.087Z,100526.56
2023-05-04T03:01:23.999Z,100529.69
2023-05-04T03:04:27.335Z,100532.22
2023-05-04T03:07:29.978Z,100519.88
2023-05-04T03:10:32.843Z,100524.19
2023-05-04T03:13:35.385Z,100530.19
2023-05-04T03:16:47.196Z,100523.59
2023-05-04T03:19:49.794Z,100529.44
2023-05-04T03:22:53.883Z,100522.69
2023-05-04T03:25:57.108Z,100532.72
2023-05-04T03:29:00.303Z,100531.63
2023-05-04T03:32:03.160Z,100529.44
2023-05-04T03:35:06.439Z,100535.09
2023-05-04T03:38:11.348Z,100526.78
2023-05-04T03:41:17.642Z,100526.44
2023-05-04T03:44:20.310Z,100537.97
2023-05-04T03:47:23.267Z,100541.72
2023-05-04T03:50:29.880Z,100537.03
2023-05-04T03:53:35.573Z,100538.34
2023-05-04T03:56:38.307Z,100545.34
2023-05-04T03:59:41.177Z,100546.81
2023-05-04T04:02:43.869Z,100551.38
2023-05-04T04:05:50.372Z,100547.81
2023-05-04T04:08:53.301Z,100544.78
2023-05-04T04:11:56.538Z,100549.72
2023-05-04T04:14:59.180Z,100548.28
2023-05-04T04:18:02.150Z,100553.81
2023-05-04T04:21:07.308Z,100551.66
2023-05-04T04:24:10.233Z,100557.19
2023-05-04T04:27:12.954Z,100555.75
2023-05-04T04:30:15.957Z,100559.25
2023-05-04T04:33:18.883Z,100562.63
2023-05-04T04:36:21.818Z,100562.34
2023-05-04T04:39:24.565Z,100566.84
2023-05-04T04:42:27.438Z,100570.66
2023-05-04T04:48:33.137Z,100566.16
2023-05-04T04:51:37.661Z,100567.19
2023-05-04T04:54:40.495Z,100574.34
2023-05-04T04:57:42.968Z,100571.19
2023-05-04T05:00:47.534Z,100579.16
2023-05-04T05:03:50.324Z,100572.91
2023-05-04T05:06:54.183Z,100577.03
2023-05-04T05:09:56.829Z,100575.66
2023-05-04T05:12:59.804Z,100577.47
2023-05-04T05:16:02.346Z,100577.91
2023-05-04T05:19:07.332Z,100579.69
2023-05-04T05:22:10.049Z,100595.00
2023-05-04T05:25:13.154Z,100583.03
2023-05-04T05:28:15.999Z,100586.37
2023-05-04T05:31:19.179Z,100580.31
2023-05-04T05:34:21.765Z,100584.84
2023-05-04T05:37:24.838Z,100583.09
2023-05-04T05:40:28.538Z,100584.31
2023-05-04T05:43:33.406Z,100591.56
2023-05-04T05:46:36.036Z,100588.31
2023-05-04T05:49:39.059Z,100599.50
2023-05-04T05:52:41.492Z,100598.50
2023-05-04T05:55:44.225Z,100592.41
2023-05-04T05:58:46.730Z,100604.69
2023-05-04T06:01:49.573Z,100602.66
2023-05-04T06:04:52.324Z,100606.59
2023-05-04T06:07:55.836Z,100606.66
2023-05-04T06:10:59.174Z,100614.22
2023-05-04T06:14:01.762Z,100616.44
2023-05-04T06:17:04.505Z,100611.00
2023-05-04T06:20:08.241Z,100607.69
2023-05-04T06:23:14.754Z,100607.22
2023-05-04T06:26:17.390Z,100607.56
2023-05-04T06:29:20.563Z,100612.22
2023-05-04T06:32:23.192Z,100604.19
2023-05-04T06:35:26.304Z,100609.25
2023-05-04T06:38:28.771Z,100614.81
2023-05-04T06:41:31.688Z,100619.19
2023-05-04T06:44:37.851Z,100618.50
2023-05-04T06:47:40.728Z,100618.50
2023-05-04T06:50:45.419Z,100621.09
2023-05-04T06:53:48.227Z,100617.78
2023-05-04T06:56:51.486Z,100625.88
2023-05-04T06:59:54.353Z,100624.72
2023-05-04T07:02:57.061Z,100622.84
2023-05-04T07:05:59.854Z,100620.19
2023-05-04T07:09:03.138Z,100618.94
2023-05-04T07:12:05.943Z,100623.87
2023-05-04T07:15:09.773Z,100627.16
2023-05-04T07:18:12.734Z,100625.81
2023-05-04T07:21:27.435Z,100629.69
2023-05-04T07:24:31.372Z,100622.53
2023-05-04T07:27:35.237Z,100617.81
2023-05-04T07:30:41.422Z,100626.63
2023-05-04T07:33:44.092Z,100621.56
2023-05-04T07:36:47.077Z,100624.13
2023-05-04T07:39:51.686Z,100618.88
2023-05-04T07:42:54.548Z,100614.03
2023-05-04T07:45:57.109Z,100614.94
2023-05-04T07:49:02.430Z,100621.31
2023-05-04T07:52:06.598Z,100621.56
2023-05-04T07:55:09.583Z,100619.31
2023-05-04T07:58:13.243Z,100621.88
2023-05-04T08:01:17.083Z,100623.00
2023-05-04T08:04:19.986Z,100621.59
2023-05-04T08:07:22.752Z,100631.22
2023-05-04T08:10:25.987Z,100626.75
2023-05-04T08:13:28.634Z,100622.06
2023-05-04T08:16:32.364Z,100621.03
2023-05-04T08:19:35.254Z,100620.44
2023-05-04T08:22:38.720Z,100618.69
2023-05-04T08:25:41.901Z,100624.19
2023-05-04T08:28:46.128Z,100623.84
2023-05-04T08:31:49.493Z,100625.69
2023-05-04T08:34:53.759Z,100628.59
2023-05-04T08:37:56.386Z,100626.00
2023-05-04T08:41:05.961Z,100629.75
2023-05-04T08:44:10.935Z,100632.44
2023-05-04T08:47:13.765Z,100628.69
2023-05-04T08:50:16.333Z,100630.34
2023-05-04T08:53:21.496Z,100629.69
2023-05-04T08:56:24.854Z,100632.66
2023-05-04T08:59:29.166Z,100632.38
2023-05-04T09:02:33.348Z,100625.25
2023-05-04T09:05:40.698Z,100620.72
2023-05-04T09:08:43.194Z,100622.91
2023-05-04T09:11:46.756Z,100625.41
2023-05-04T09:14:49.491Z,100619.03
2023-05-04T09:18:03.478Z,100627.06
2023-05-04T09:21:06.900Z,100623.91
2023-05-04T09:24:10.086Z,100624.94
2023-05-04T09:27:15.776Z,100625.34
2023-05-04T09:30:22.107Z,100623.75
2023-05-04T09:33:28.017Z,100619.31
2023-05-04T09:36:32.986Z,100620.63
2023-05-04T09:39:35.566Z,100614.56
2023-05-04T09:42:38.625Z,100602.87
2023-05-04T09:45:43.857Z,100602.19
2023-05-04T09:48:55.227Z,100604.62
2023-05-04T09:51:59.330Z,100603.59
2023-05-04T09:55:04.998Z,100608.25
2023-05-04T09:58:08.553Z,100599.25
2023-05-04T10:01:11.964Z,100594.38
2023-05-04T10:04:14.984Z,100589.75
2023-05-04T10:07:18.235Z,100584.59
2023-05-04T10:10:22.193Z,100583.91
2023-05-04T10:13:26.248Z,100576.34
2023-05-04T10:16:32.029Z,100578.53
2023-05-04T10:19:57.843Z,100571.12
2023-05-04T10:23:09.625Z,100579.00
2023-05-04T10:26:26.911Z,100569.19
2023-05-04T10:29:31.033Z,100567.25
2023-05-04T10:32:39.442Z,100566.53
2023-05-04T10:35:54.948Z,100562.53
2023-05-04T10:38:57.956Z,100557.97
2023-05-04T10:42:08.848Z,100555.66
2023-05-04T10:45:13.066Z,100560.16
2023-05-04T10:48:16.845Z,100552.81
2023-05-04T10:51:22.830Z,100551.19
2023-05-04T10:54:25.712Z,100546.34
2023-05-04T10:57:29.535Z,100543.34
2023-05-04T11:00:39.021Z,100550.50
2023-05-04T11:03:42.344Z,100539.06
2023-05-04T11:07:06.206Z,100538.44
2023-05-04T11:10:22.004Z,100530.06
2023-05-04T11:13:26.920Z,100531.56
2023-05-04T11:16:29.520Z,100521.44
2023-05-04T11:19:34.299Z,100522.31
2023-05-04T11:22:37.525Z,100516.06
2023-05-04T11:25:40.651Z,100522.59
2023-05-04T11:28:44.635Z,100515.44
2023-05-04T11:31:55.263Z,100519.47
2023-05-04T11:34:57.842Z,100514.72
2023-05-04T11:38:00.948Z,100509.13
2023-05-04T11:41:05.698Z,100503.91
2023-05-04T11:44:10.238Z,100498.41
2023-05-04T11:47:13.902Z,100496.66
2023-05-04T11:50:19.500Z,100508.63
2023-05-04T11:53:23.471Z,100500.75
2023-05-04T11:56:26.411Z,100494.69
2023-05-04T11:59:29.007Z,100498.97
2023-05-04T12:02:32.218Z,100497.03
2023-05-04T12:05:36.935Z,100492.44
2023-05-04T12:08:42.431Z,100484.00
2023-05-04T12:11:56.309Z,100485.66
2023-05-04T12:14:58.835Z,100482.88
2023-05-04T12:18:03.127Z,100481.44
2023-05-04T12:21:10.294Z,100478.59
2023-05-04T12:24:13.200Z,100478.34
2023-05-04T12:27:15.890Z,100468.63
2023-05-04T12:30:20.203Z,100469.97
2023-05-04T12:33:23.924Z,100471.16
2023-05-04T12:36:26.973Z,100470.31
2023-05-04T12:39:32.044Z,100477.66
2023-05-04T12:42:34.828Z,100466.88
2023-05-04T12:45:38.144Z,100463.59
2023-05-04T12:48:40.942Z,100458.34
2023-05-04T12:51:44.008Z,100452.31
2023-05-04T12:54:47.447Z,100454.28
2023-05-04T12:57:49.952Z,100458.13
2023-05-04T13:00:53.962Z,100450.09
2023-05-04T13:03:56.812Z,100460.28
2023-05-04T13:06:59.606Z,100446.97
2023-05-04T13:10:03.197Z,100446.13
2023-05-04T13:13:07.422Z,100440.13
2023-05-04T13:16:10.214Z,100437.94
2023-05-04T13:19:13.154Z,100431.41
2023-05-04T13:22:15.625Z,100431.28
2023-05-04T13:25:18.873Z,100433.87
2023-05-04T13:28:22.502Z,100422.75
2023-05-04T13:31:25.533Z,100426.47
2023-05-04T13:34:28.135Z,100414.16
2023-05-04T13:37:31.325Z,100414.59
2023-05-04T13:40:37.125Z,100412.22
2023-05-04T13:43:39.933Z,100404.28
2023-05-04T13:46:42.569Z,100395.59
2023-05-04T13:49:45.692Z,100397.47
2023-05-04T13:52:48.458Z,100390.97
2023-05-04T13:55:51.386Z,100397.44
2023-05-04T13:58:53.960Z,100395.06
2023-05-04T14:01:56.898Z,100402.72
2023-05-04T14:04:59.725Z,100396.50
2023-05-04T14:08:02.953Z,100394.47
2023-05-04T14:11:06.474Z,100391.91
2023-05-04T14:14:10.140Z,100384.22
2023-05-04T14:17:15.177Z,100392.84
2023-05-04T14:20:18.297Z,100384.66
2023-05-04T14:23:21.270Z,100376.22
2023-05-04T14:26:23.862Z,100371.72
2023-05-04T14:29:27.292Z,100376.34
2023-05-04T14:32:29.908Z,100374.19
2023-05-04T14:35:37.309Z,100375.63
2023-05-04T14:38:46.195Z,100379.81
2023-05-04T14:41:49.154Z,100364.03
2023-05-04T14:44:53.056Z,100371.38
2023-05-04T14:47:58.596Z,100378.06
2023-05-04T14:51:01.569Z,100373.13
2023-05-04T14:54:05.118Z,100365.72
2023-05-04T14:57:09.025Z,100371.06
2023-05-04T15:00:12.426Z,100375.78
2023-05-04T15:03:16.166Z,100366.47
2023-05-04T15:06:19.232Z,100367.25
2023-05-04T15:09:22.301Z,100373.34
2023-05-04T15:12:29.127Z,100372.03
2023-05-04T15:15:31.800Z,100371.38
2023-05-04T15:18:34.624Z,100365.84
2023-05-04T15:21:38.433Z,100371.09
2023-05-04T15:24:41.228Z,100370.03
2023-05-04T15:27:43.929Z,100368.09
2023-05-04T15:30:47.830Z,100366.88
2023-05-04T15:33:50.390Z,100368.91
2023-05-04T15:36:53.194Z,100365.72
2023-05-04T15:39:56.492Z,100365.06
2023-05-04T15:42:59.334Z,100363.06
2023-05-04T15:46:02.182Z,100364.53
2023-05-04T15:49:05.535Z,100357.00
2023-05-04T15:52:08.069Z,100364.91
2023-05-04T15:55:24.301Z,100358.84
2023-05-04T15:58:28.931Z,100359.72
2023-05-04T16:01:35.310Z,100360.62
2023-05-04T16:04:38.134Z,100358.34
2023-05-04T16:07:40.807Z,100354.12
2023-05-04T16:10:46.603Z,100354.84
2023-05-04T16:13:49.129Z,100356.25
2023-05-04T16:16:51.960Z,100354.41
2023-05-04T16:19:54.792Z,100357.09
2023-05-04T16:22:58.001Z,100360.28
2023-05-04T16:26:00.836Z,100353.75
2023-05-04T16:29:06.860Z,100356.88
2023-05-04T16:32:16.663Z,100355.87
2023-05-04T16:35:19.614Z,100354.09
2023-05-04T16:38:22.299Z,100362.84
2023-05-04T16:41:25.946Z,100356.41
2023-05-04T16:44:31.240Z,100363.56
2023-05-04T16:47:35.234Z,100360.94
2023-05-04T16:50:38.717Z,100364.28
2023-05-04T16:53:42.159Z,100374.66
2023-05-04T16:56:44.742Z,100362.00
2023-05-04T16:59:47.653Z,100369.63
2023-05-04T17:02:51.763Z,100381.28
2023-05-04T17:05:54.612Z,100381.09
2023-05-04T17:08:57.321Z,100383.53
2023-05-04T17:12:01.076Z,100379.00
2023-05-04T17:15:04.612Z,100387.56
2023-05-04T17:18:07.626Z,100390.94
2023-05-04T17:21:10.841Z,100390.44
2023-05-04T17:24:13.684Z,100390.09
2023-05-04T17:27:18.574Z,100392.44
2023-05-04T17:30:22.391Z,100393.72
2023-05-04T17:33:26.408Z,100386.00
2023-05-04T17:36:29.393Z,100409.09
2023-05-04T17:39:31.981Z,100405.88
2023-05-04T17:42:34.858Z,100404.34
2023-05-04T17:45:37.335Z,100407.00
2023-05-04T17:48:44.924Z,100412.53
2023-05-04T17:51:49.213Z,100406.13
2023-05-04T17:54:53.251Z,100417.59
2023-05-04T17:57:55.912Z,100417.31
2023-05-04T18:00:59.278Z,100426.72
2023-05-04T18:04:06.062Z,100428.56
2023-05-04T18:07:08.515Z,100437.69
2023-05-04T18:10:12.113Z,100434.31
2023-05-04T18:13:16.330Z,100444.09
2023-05-04T18:16:22.842Z,100446.06
2023-05-04T18:19:27.759Z,100453.22
2023-05-04T18:22:30.904Z,100450.31
2023-05-04T18:25:33.698Z,100459.47
2023-05-04T18:28:36.535Z,100456.53
2023-05-04T18:31:39.176Z,100461.13
2023-05-04T18:34:42.123Z,100472.50
2023-05-04T18:37:44.648Z,100467.84
2023-05-04T18:40:52.824Z,100472.56
2023-05-04T18:43:58.597Z,100475.00
2023-05-04T18:47:03.634Z,100475.31
2023-05-04T18:50:07.394Z,100481.28
2023-05-04T18:53:12.106Z,100487.75
2023-05-04T18:56:14.723Z,100496.91
2023-05-04T18:59:17.697Z,100501.63
2023-05-04T19:02:20.617Z,100500.03
2023-05-04T19:05:23.940Z,100499.69
2023-05-04T19:08:27.302Z,100503.00
2023-05-04T19:11:32.701Z,100504.50
2023-05-04T19:14:35.319Z,100507.28
2023-05-04T19:17:38.302Z,100509.81
2023-05-04T19:20:43.803Z,100514.22
2023-05-04T19:23:46.783Z,100517.56
2023-05-04T19:26:49.333Z,100518.44
2023-05-04T19:29:52.336Z,100523.69
2023-05-04T19:32:54.859Z,100519.47
2023-05-04T19:35:58.884Z,100523.00
2023-05-04T19:39:04.408Z,100527.38
2023-05-04T19:42:07.484Z,100532.56
2023-05-04T19:45:10.375Z,100534.50
2023-05-04T19:48:16.259Z,100529.75
2023-05-04T19:51:20.090Z,100533.13
2023-05-04T19:54:23.131Z,100531.72
2023-05-04T19:57:26.050Z,100533.16
2023-05-04T20:00:29.418Z,100531.72
2023-05-04T20:03:32.315Z,100531.87
2023-05-04T20:06:35.926Z,100530.34
2023-05-04T20:09:38.949Z,100533.16
2023-05-04T20:12:42.173Z,100528.69
2023-05-04T20:15:45.158Z,100525.59
2023-05-04T20:18:47.876Z,100528.09
2023-05-04T20:21:50.907Z,100536.91
2023-05-04T20:24:54.792Z,100547.41
2023-05-04T20:27:59.734Z,100550.81
2023-05-04T20:31:03.636Z,100558.84
2023-05-04T20:34:07.363Z,100559.53
2023-05-04T20:37:09.823Z,100559.53
2023-05-04T20:40:16.880Z,100560.78
2023-05-04T20:43:20.243Z,100562.63
2023-05-04T20:46:23.247Z,100557.84
2023-05-04T20:49:26.277Z,100557.00
2023-05-04T20:52:29.160Z,100560.09
2023-05-04T20:55:32.199Z,100542.16
2023-05-04T20:58:35.369Z,100549.19
2023-05-04T21:01:38.374Z,100549.28
2023-05-04T21:04:43.333Z,100539.06
2023-05-04T21:07:45.818Z,100547.19
2023-05-04T21:10:52.053Z,100557.12
2023-05-04T21:14:00.767Z,100558.53
2023-05-04T21:17:04.818Z,100554.06
2023-05-04T21:20:09.293Z,100558.25
2023-05-04T21:23:16.013Z,100562.31
2023-05-04T21:26:18.594Z,100565.69
2023-05-04T21:29:21.336Z,100573.50
2023-05-04T21:32:24.054Z,100577.56
2023-05-04T21:35:31.396Z,100556.56
2023-05-04T21:38:33.907Z,100563.03
2023-05-04T21:41:39.452Z,100558.41
2023-05-04T21:44:42.857Z,100558.22
2023-05-04T21:47:46.556Z,100560.62
2023-05-04T21:50:50.205Z,100560.91
2023-05-04T21:53:54.350Z,100587.88
2023-05-04T21:56:56.892Z,100574.88
2023-05-04T22:00:00.098Z,100565.81
2023-05-04T22:03:03.278Z,100562.53
2023-05-04T22:06:06.537Z,100569.72
2023-05-04T22:09:09.356Z,100565.31
2023-05-04T22:12:12.347Z,100565.87
2023-05-04T22:15:15.092Z,100570.94
2023-05-04T22:18:18.196Z,100569.37
2023-05-04T22:21:20.744Z,100575.75
2023-05-04T22:24:23.856Z,100575.31
2023-05-04T22:27:27.573Z,100571.47
2023-05-04T22:30:30.748Z,100573.97
2023-05-04T22:33:34.549Z,100570.88
2023-05-04T22:36:37.476Z,100571.91
2023-05-04T22:39:40.300Z,100566.06
2023-05-04T22:42:46.118Z,100565.44
2023-05-04T22:45:48.627Z,100567.03
2023-05-04T22:48:51.589Z,100564.03
2023-05-04T22:51:54.126Z,100570.44
2023-05-04T22:54:56.927Z,100553.44
2023-05-04T22:57:59.551Z,100552.63
2023-05-04T23:01:02.901Z,100553.13
2023-05-04T23:04:05.618Z,100554.56
2023-05-04T23:07:08.742Z,100551.47
2023-05-04T23:10:11.451Z,100550.41
2023-05-04T23:13:14.570Z,100550.31
2023-05-04T23:16:18.096Z,100545.50
2023-05-04T23:19:21.301Z,100548.87
2023-05-04T23:22:23.872Z,100546.72
2023-05-04T23:25:26.740Z,100540.16
2023-05-04T23:28:29.236Z,100539.81
2023-05-04T23:31:32.050Z,100542.91
2023-05-04T23:34:34.645Z,100540.44
2023-05-04T23:37:37.559Z,100546.09
2023-05-04T23:40:40.099Z,100541.75
2023-05-04T23:43:43.239Z,100533.47
2023-05-04T23:46:47.900Z,100528.06
2023-05-04T23:49:51.149Z,100535.28
2023-05-04T23:52:53.709Z,100533.44
2023-05-04T23:56:03.769Z,100529.97
2023-05-04T23:59:06.937Z,100529.72
